Time;durP1;ratioP1;P1;durP2;ratioP2;P2;SDS_P1;SDS_P2;PMS_P1;PMS_P2;Temp;Humidity;BMP_temperature;BMP_pressure;BME280_temperature;BME280_humidity;BME280_pressure;Samples;Min_cycle;Max_cycle;Signal;HPM_P1;HPM_P2
2023/12/06 00:01:42;;;;;;;20.42;12.70;;;19.70;52.70;;;;;;5113791;28;20126;-51
2023/12/06 00:04:08;;;;;;;19.20;11.82;;;19.80;52.70;;;;;;5113199;28;20095;-47
2023/12/06 00:06:34;;;;;;;19.98;12.13;;;19.70;52.60;;;;;;5113249;28;20023;-49
2023/12/06 00:08:59;;;;;;;21.70;12.25;;;19.70;52.50;;;;;;5111439;28;20221;-46
2023/12/06 00:11:25;;;;;;;21.33;11.93;;;19.80;52.70;;;;;;5113563;27;20487;-45
2023/12/06 00:13:51;;;;;;;19.27;11.75;;;19.80;52.60;;;;;;5110045;28;20440;-45
2023/12/06 00:16:17;;;;;;;19.60;12.32;;;19.70;52.70;;;;;;5113716;28;20024;-46
2023/12/06 00:18:45;;;;;;;20.15;12.63;;;19.70;53.30;;;;;;5109937;28;20088;-48
2023/12/06 00:21:11;;;;;;;19.13;11.38;;;19.70;52.80;;;;;;5112833;28;20024;-49
2023/12/06 00:23:37;;;;;;;20.73;12.93;;;19.70;52.70;;;;;;5113300;28;20611;-47
2023/12/06 00:26:03;;;;;;;20.70;13.05;;;19.70;52.70;;;;;;5113338;28;20106;-46
2023/12/06 00:28:28;;;;;;;24.58;11.60;;;19.70;52.40;;;;;;5111526;28;20019;-46
2023/12/06 00:30:54;;;;;;;18.75;11.88;;;19.60;53.60;;;;;;5113211;28;20192;-48
2023/12/06 00:33:21;;;;;;;20.35;10.80;;;19.60;53.00;;;;;;5113536;28;20027;-45
2023/12/06 00:35:47;;;;;;;19.98;12.15;;;19.60;52.70;;;;;;5113125;28;20023;-47
2023/12/06 00:38:14;;;;;;;20.60;11.82;;;19.60;52.80;;;;;;5112971;28;20023;-48
2023/12/06 00:40:41;;;;;;;22.08;11.98;;;19.60;52.60;;;;;;5112217;28;20229;-47
2023/12/06 00:43:06;;;;;;;20.67;12.25;;;19.60;52.80;;;;;;5112578;28;20019;-46
2023/12/06 00:45:33;;;;;;;18.73;11.68;;;19.60;52.80;;;;;;5111425;28;20598;-46
2023/12/06 00:47:58;;;;;;;18.92;11.55;;;19.60;52.90;;;;;;5111479;28;20077;-54
2023/12/06 00:50:24;;;;;;;18.23;11.20;;;19.60;52.80;;;;;;5112558;28;20325;-52
2023/12/06 00:52:50;;;;;;;20.50;11.95;;;19.60;52.80;;;;;;5112466;28;20016;-54
2023/12/06 00:55:15;;;;;;;18.27;10.93;;;19.60;52.60;;;;;;5112188;28;20026;-54
2023/12/06 00:57:41;;;;;;;20.20;11.63;;;19.60;52.70;;;;;;5111282;28;20024;-54
2023/12/06 01:00:08;;;;;;;19.90;12.13;;;19.60;52.60;;;;;;5111102;28;20019;-54
2023/12/06 01:02:34;;;;;;;18.58;11.43;;;19.60;52.60;;;;;;5112695;28;20019;-54
2023/12/06 01:05:00;;;;;;;19.70;11.27;;;19.60;52.40;;;;;;5112485;28;20046;-53
2023/12/06 01:07:26;;;;;;;18.33;11.52;;;19.60;52.60;;;;;;5110341;28;21233;-53
2023/12/06 01:09:52;;;;;;;19.70;11.10;;;19.60;52.40;;;;;;5104444;28;20110;-54
2023/12/06 01:12:19;;;;;;;19.73;12.30;;;19.60;52.50;;;;;;5111602;28;20032;-54
2023/12/06 01:14:45;;;;;;;20.10;12.05;;;19.60;52.50;;;;;;5111197;28;20067;-54
2023/12/06 01:17:11;;;;;;;19.17;11.90;;;19.60;52.30;;;;;;5111932;28;20104;-53
2023/12/06 01:19:37;;;;;;;18.95;11.13;;;19.60;52.40;;;;;;5109865;28;20031;-52
2023/12/06 01:22:03;;;;;;;21.83;12.07;;;19.60;52.40;;;;;;5111423;28;20031;-54
2023/12/06 01:24:28;;;;;;;18.92;11.55;;;19.60;52.20;;;;;;5111676;28;20027;-53
2023/12/06 01:26:54;;;;;;;19.63;11.65;;;19.60;52.40;;;;;;5110999;28;20562;-53
2023/12/06 01:29:20;;;;;;;22.48;11.75;;;19.70;52.30;;;;;;5111486;28;20020;-54
2023/12/06 01:31:46;;;;;;;17.15;10.80;;;19.60;52.30;;;;;;5110429;28;20030;-54
2023/12/06 01:34:11;;;;;;;19.27;11.25;;;19.70;52.40;;;;;;5111191;28;20019;-54
2023/12/06 01:36:37;;;;;;;20.58;11.23;;;19.70;52.50;;;;;;5111083;28;20023;-52
2023/12/06 01:39:03;;;;;;;21.27;11.38;;;19.60;52.30;;;;;;5111277;28;20445;-52
2023/12/06 01:41:29;;;;;;;19.27;12.10;;;19.60;52.40;;;;;;5111437;28;20449;-54
2023/12/06 01:43:55;;;;;;;21.17;12.10;;;19.60;52.40;;;;;;5111409;28;20055;-49
2023/12/06 01:46:21;;;;;;;19.33;12.13;;;19.60;52.60;;;;;;5111198;28;20474;-52
2023/12/06 01:48:48;;;;;;;19.60;10.80;;;19.60;52.50;;;;;;5111531;28;20106;-52
2023/12/06 01:51:17;;;;;;;18.38;11.40;;;19.60;52.60;;;;;;5111881;28;20047;-54
2023/12/06 01:53:43;;;;;;;17.88;10.30;;;19.60;52.50;;;;;;5109474;28;20028;-51
2023/12/06 01:56:10;;;;;;;20.55;11.75;;;19.60;52.30;;;;;;5111668;28;20016;-54
2023/12/06 01:58:37;;;;;;;18.50;11.00;;;19.60;52.20;;;;;;5109896;28;20062;-54
2023/12/06 02:01:04;;;;;;;20.70;11.25;;;19.60;52.30;;;;;;5110116;28;20091;-52
2023/12/06 02:03:31;;;;;;;19.10;11.95;;;19.60;52.20;;;;;;5111129;28;20190;-54
2023/12/06 02:05:59;;;;;;;20.95;11.70;;;19.60;52.30;;;;;;5111001;28;20027;-51
2023/12/06 02:08:25;;;;;;;20.35;11.55;;;19.60;52.20;;;;;;5110955;28;20531;-53
2023/12/06 02:10:51;;;;;;;18.23;11.60;;;19.60;52.30;;;;;;5110119;28;20110;-54
2023/12/06 02:13:17;;;;;;;18.65;11.02;;;19.60;52.30;;;;;;5111184;28;20099;-49
2023/12/06 02:15:44;;;;;;;18.73;11.23;;;19.70;52.50;;;;;;5111778;28;20103;-54
2023/12/06 02:18:10;;;;;;;17.77;10.65;;;19.60;52.60;;;;;;5109676;28;20020;-52
2023/12/06 02:20:36;;;;;;;17.77;11.05;;;19.60;52.50;;;;;;5111503;28;20523;-49
2023/12/06 02:23:05;;;;;;;17.80;10.60;;;19.60;52.40;;;;;;5109108;28;20019;-54
2023/12/06 02:25:31;;;;;;;16.88;10.48;;;19.60;52.70;;;;;;5109331;28;20520;-52
2023/12/06 02:27:57;;;;;;;19.02;11.15;;;19.70;52.50;;;;;;5110815;28;20011;-53
2023/12/06 02:30:23;;;;;;;16.60;10.23;;;19.60;52.30;;;;;;5110633;28;20053;-52
2023/12/06 02:32:49;;;;;;;17.25;10.70;;;19.70;52.30;;;;;;5109625;28;20386;-54
2023/12/06 02:35:26;;;;;;;20.00;10.73;;;19.60;52.20;;;;;;5111574;28;20024;-54
2023/12/06 02:37:55;;;;;;;18.17;10.73;;;19.60;52.20;;;;;;5110946;28;20051;-49
2023/12/06 02:40:23;;;;;;;17.90;11.27;;;19.70;52.20;;;;;;5111787;28;20077;-51
2023/12/06 02:42:49;;;;;;;16.63;10.52;;;19.60;52.60;;;;;;5108617;28;20044;-54
2023/12/06 02:45:15;;;;;;;19.50;10.73;;;19.70;52.60;;;;;;5113154;28;20040;-54
2023/12/06 02:47:41;;;;;;;19.02;10.85;;;19.60;52.20;;;;;;5114449;28;20031;-53
2023/12/06 02:50:07;;;;;;;18.80;10.38;;;19.60;52.20;;;;;;5113443;28;20022;-54
2023/12/06 02:52:33;;;;;;;17.02;10.38;;;19.60;52.30;;;;;;5115306;28;20483;-49
2023/12/06 02:54:59;;;;;;;16.73;10.23;;;19.60;52.20;;;;;;5115287;28;20028;-54
2023/12/06 02:57:24;;;;;;;15.98;10.55;;;19.60;52.20;;;;;;5113166;28;20027;-53
2023/12/06 02:59:50;;;;;;;18.15;10.70;;;19.60;52.30;;;;;;5113113;28;20448;-52
2023/12/06 03:02:16;;;;;;;18.20;10.73;;;19.60;52.20;;;;;;5112174;28;20028;-54
2023/12/06 03:04:42;;;;;;;18.58;11.15;;;19.60;52.20;;;;;;5114424;27;20035;-54
2023/12/06 03:07:07;;;;;;;17.65;10.65;;;19.60;52.10;;;;;;5113766;28;20387;-54
2023/12/06 03:09:33;;;;;;;17.88;10.68;;;19.60;52.20;;;;;;5113438;28;20487;-53
2023/12/06 03:11:59;;;;;;;17.63;10.70;;;19.60;52.30;;;;;;5113668;28;20024;-53
2023/12/06 03:14:25;;;;;;;17.38;10.43;;;19.60;52.20;;;;;;5114302;28;20487;-53
2023/12/06 03:16:51;;;;;;;18.75;11.35;;;19.60;52.40;;;;;;5113434;28;20482;-54
2023/12/06 03:19:16;;;;;;;17.63;10.68;;;19.60;52.30;;;;;;5097150;28;20096;-54
2023/12/06 03:21:42;;;;;;;15.48;10.27;;;19.60;52.30;;;;;;5114540;28;20031;-53
2023/12/06 03:24:08;;;;;;;16.40;10.38;;;19.60;52.30;;;;;;5114711;28;20019;-54
2023/12/06 03:26:33;;;;;;;15.95;10.35;;;19.60;52.20;;;;;;5112915;28;20084;-54
2023/12/06 03:28:59;;;;;;;17.55;10.32;;;19.60;52.50;;;;;;5114030;28;20107;-54
2023/12/06 03:31:25;;;;;;;15.93;10.32;;;19.60;52.50;;;;;;5113761;28;20498;-54
2023/12/06 03:33:51;;;;;;;16.92;10.60;;;19.60;52.40;;;;;;5113664;28;20032;-54
2023/12/06 03:36:16;;;;;;;18.02;10.88;;;19.60;52.30;;;;;;5111833;28;20027;-54
2023/12/06 03:38:42;;;;;;;17.58;10.43;;;19.60;52.20;;;;;;5113633;28;20454;-54
2023/12/06 03:41:08;;;;;;;18.00;10.00;;;19.60;52.40;;;;;;5114520;28;20024;-54
2023/12/06 03:43:34;;;;;;;17.50;11.02;;;19.60;52.20;;;;;;5112771;28;20023;-54
2023/12/06 03:46:00;;;;;;;17.38;10.93;;;19.60;52.20;;;;;;5112829;28;20016;-54
2023/12/06 03:48:25;;;;;;;16.77;10.00;;;19.60;52.20;;;;;;5113526;28;20482;-54
2023/12/06 03:50:51;;;;;;;15.73;10.25;;;19.60;52.60;;;;;;5111916;28;20437;-53
2023/12/06 03:53:17;;;;;;;17.90;10.93;;;19.50;52.20;;;;;;5114134;28;20028;-51
2023/12/06 03:55:43;;;;;;;17.08;10.50;;;19.60;52.10;;;;;;5112498;28;20042;-54
2023/12/06 03:58:09;;;;;;;15.65;10.48;;;19.60;52.00;;;;;;5111586;28;20019;-54
2023/12/06 04:00:35;;;;;;;17.08;10.45;;;19.60;52.10;;;;;;5112017;28;20080;-54
2023/12/06 04:03:00;;;;;;;17.70;10.93;;;19.50;52.10;;;;;;5113359;27;20094;-51
2023/12/06 04:05:26;;;;;;;16.67;10.35;;;19.50;52.00;;;;;;5124480;22;20044;-52
2023/12/06 04:07:52;;;;;;;16.75;10.50;;;19.60;52.10;;;;;;5082613;28;20466;-47
2023/12/06 04:10:18;;;;;;;17.35;10.55;;;19.60;52.10;;;;;;5084372;28;20513;-52
2023/12/06 04:12:44;;;;;;;14.98;10.05;;;19.50;52.10;;;;;;5083338;28;20067;-51
2023/12/06 04:15:11;;;;;;;18.45;11.05;;;19.60;52.20;;;;;;5083221;28;20484;-51
2023/12/06 04:17:36;;;;;;;17.23;10.52;;;19.60;52.20;;;;;;5077724;28;20033;-52
2023/12/06 04:20:06;;;;;;;17.02;10.48;;;19.60;52.30;;;;;;5076169;28;20065;-51
2023/12/06 04:22:32;;;;;;;16.83;10.30;;;19.60;52.30;;;;;;5062566;28;20369;-54
2023/12/06 04:24:58;;;;;;;17.23;10.70;;;19.60;52.40;;;;;;5072407;28;20031;-52
2023/12/06 04:27:23;;;;;;;17.85;10.75;;;19.60;52.30;;;;;;5072613;28;20021;-51
2023/12/06 04:29:49;;;;;;;17.52;11.02;;;19.50;52.20;;;;;;5062412;28;20425;-52
2023/12/06 04:32:15;;;;;;;18.40;10.73;;;19.60;52.30;;;;;;5072709;28;20099;-53
2023/12/06 04:34:55;;;;;;;16.30;10.27;;;19.50;52.10;;;;;;5070756;28;20059;-51
2023/12/06 04:37:21;;;;;;;16.58;10.43;;;19.60;52.20;;;;;;5076578;28;20020;-50
2023/12/06 04:39:47;;;;;;;17.38;11.18;;;19.60;52.30;;;;;;5076329;28;20409;-51
2023/12/06 04:42:14;;;;;;;18.65;10.77;;;19.60;52.40;;;;;;5064616;28;20021;-47
2023/12/06 04:44:40;;;;;;;18.63;11.65;;;19.60;52.80;;;;;;5072655;28;20543;-48
2023/12/06 04:47:06;;;;;;;16.67;10.13;;;19.60;52.10;;;;;;5072669;28;20143;-51
2023/12/06 04:49:32;;;;;;;17.63;11.23;;;19.60;52.20;;;;;;5072368;28;20017;-52
2023/12/06 04:51:59;;;;;;;20.10;11.73;;;19.60;52.00;;;;;;5060375;28;20037;-51
2023/12/06 04:54:25;;;;;;;16.77;10.65;;;19.60;52.00;;;;;;5063020;28;20036;-53
2023/12/06 04:56:51;;;;;;;19.98;11.00;;;19.60;52.10;;;;;;5071942;28;20414;-49
2023/12/06 04:59:17;;;;;;;16.75;11.20;;;19.60;51.90;;;;;;5072002;28;20522;-45
2023/12/06 05:01:46;;;;;;;16.98;10.55;;;19.60;52.00;;;;;;5067255;28;20067;-52
2023/12/06 05:04:11;;;;;;;16.20;10.20;;;19.60;52.30;;;;;;5075638;28;20466;-46
2023/12/06 05:06:37;;;;;;;16.77;10.15;;;19.60;52.10;;;;;;5074853;28;20220;-51
2023/12/06 05:09:10;;;;;;;17.05;10.95;;;19.60;52.10;;;;;;5078083;28;20055;-50
2023/12/06 05:11:36;;;;;;;16.75;10.10;;;19.60;52.00;;;;;;5081738;28;20027;-48
2023/12/06 05:14:02;;;;;;;20.13;10.32;;;19.60;52.00;;;;;;5063383;28;20103;-50
2023/12/06 05:16:28;;;;;;;17.60;10.75;;;19.60;52.00;;;;;;5075847;28;20547;-49
2023/12/06 05:18:54;;;;;;;17.38;10.75;;;19.60;52.60;;;;;;5063758;28;20029;-47
2023/12/06 05:21:20;;;;;;;19.40;11.23;;;19.60;52.00;;;;;;5073615;28;20035;-47
2023/12/06 05:23:46;;;;;;;17.48;10.73;;;19.60;51.90;;;;;;5070793;28;20021;-47
2023/12/06 05:26:11;;;;;;;17.25;11.05;;;19.60;51.90;;;;;;5069174;28;20063;-52
2023/12/06 05:28:37;;;;;;;19.70;11.32;;;19.60;52.20;;;;;;5071373;28;20228;-50
2023/12/06 05:31:03;;;;;;;19.60;10.98;;;19.60;52.00;;;;;;5071773;28;20368;-50
2023/12/06 05:33:29;;;;;;;17.30;11.20;;;19.60;52.00;;;;;;5068424;28;20046;-48
2023/12/06 05:35:57;;;;;;;18.70;11.60;;;19.60;52.00;;;;;;5067029;28;20031;-49
2023/12/06 05:38:23;;;;;;;18.13;11.32;;;19.60;52.00;;;;;;5074964;28;20024;-47
2023/12/06 05:40:50;;;;;;;20.17;11.63;;;19.60;51.90;;;;;;5075971;28;20028;-47
2023/12/06 05:43:15;;;;;;;16.15;10.57;;;19.60;51.90;;;;;;5076113;28;20013;-49
2023/12/06 05:45:41;;;;;;;16.63;11.07;;;19.60;51.80;;;;;;5072235;28;20507;-50
2023/12/06 05:48:07;;;;;;;16.95;11.38;;;19.50;51.70;;;;;;5054769;28;20185;-47
2023/12/06 05:50:33;;;;;;;16.42;10.80;;;19.60;51.80;;;;;;5079645;28;20069;-45
2023/12/06 05:52:59;;;;;;;20.70;11.25;;;19.60;51.80;;;;;;5076443;28;20031;-45
2023/12/06 05:55:25;;;;;;;17.95;11.55;;;19.60;51.90;;;;;;5063067;28;20025;-46
2023/12/06 05:57:51;;;;;;;16.75;10.88;;;19.60;51.90;;;;;;5068353;28;20123;-43
2023/12/06 06:00:17;;;;;;;17.85;10.95;;;19.60;51.90;;;;;;5071216;28;20024;-44
2023/12/06 06:02:43;;;;;;;16.23;10.45;;;19.60;52.00;;;;;;5066632;28;20029;-45
2023/12/06 06:05:10;;;;;;;20.73;10.85;;;19.60;52.30;;;;;;5080006;28;20024;-47
2023/12/06 06:07:36;;;;;;;17.48;11.00;;;19.60;52.30;;;;;;5073040;28;20047;-44
2023/12/06 06:10:03;;;;;;;15.65;10.80;;;19.60;52.20;;;;;;5075499;28;20078;-48
2023/12/06 06:12:29;;;;;;;18.27;11.43;;;19.60;52.30;;;;;;5073173;28;20021;-46
2023/12/06 06:14:55;;;;;;;17.02;11.52;;;19.60;52.30;;;;;;5068384;28;20091;-50
2023/12/06 06:17:22;;;;;;;19.85;11.07;;;19.60;52.30;;;;;;5076101;28;20462;-52
2023/12/06 06:19:48;;;;;;;16.98;10.73;;;19.60;52.40;;;;;;5075712;28;20039;-50
2023/12/06 06:22:14;;;;;;;19.40;10.93;;;19.60;52.50;;;;;;5063678;28;20468;-51
2023/12/06 06:24:40;;;;;;;17.95;11.23;;;19.60;52.40;;;;;;5073499;28;20031;-50
2023/12/06 06:27:06;;;;;;;17.52;10.98;;;19.60;52.40;;;;;;5073267;28;20074;-51
2023/12/06 06:29:31;;;;;;;16.85;10.45;;;19.60;52.30;;;;;;5074723;28;20141;-48
2023/12/06 06:31:57;;;;;;;18.85;11.20;;;19.50;52.50;;;;;;5066955;28;20056;-48
2023/12/06 06:34:23;;;;;;;16.65;10.15;;;19.60;52.20;;;;;;5079103;28;20080;-49
2023/12/06 06:36:49;;;;;;;20.67;11.38;;;19.60;52.20;;;;;;5073494;28;20377;-48
2023/12/06 06:39:15;;;;;;;19.30;11.68;;;19.50;52.10;;;;;;5081996;28;20024;-49
2023/12/06 06:41:40;;;;;;;17.33;11.40;;;19.60;52.10;;;;;;5074814;28;20067;-50
2023/12/06 06:44:06;;;;;;;20.77;11.82;;;19.50;52.00;;;;;;5070784;28;20441;-47
2023/12/06 06:46:32;;;;;;;16.88;10.82;;;19.60;52.30;;;;;;5065511;28;20164;-46
2023/12/06 06:48:58;;;;;;;16.85;10.57;;;19.60;52.20;;;;;;5074541;28;20028;-51
2023/12/06 06:51:35;;;;;;;20.77;11.88;;;19.60;52.60;;;;;;5074908;28;20025;-45
2023/12/06 06:54:02;;;;;;;18.70;11.15;;;19.60;52.30;;;;;;5074770;28;20077;-51
2023/12/06 06:56:28;;;;;;;18.05;11.30;;;19.60;52.90;;;;;;5074696;28;20056;-48
2023/12/06 06:58:54;;;;;;;19.83;11.25;;;19.60;52.70;;;;;;5074462;28;20052;-50
2023/12/06 07:01:20;;;;;;;17.70;11.13;;;19.60;52.10;;;;;;5065816;28;20492;-50
2023/12/06 07:03:46;;;;;;;19.20;11.85;;;19.60;52.20;;;;;;5073019;28;20100;-45
2023/12/06 07:06:11;;;;;;;19.35;11.50;;;19.60;52.10;;;;;;5074737;28;20039;-47
2023/12/06 07:08:37;;;;;;;29.77;11.77;;;19.60;52.20;;;;;;5073932;28;20565;-47
2023/12/06 07:11:06;;;;;;;23.40;11.40;;;19.60;51.90;;;;;;5074536;28;20104;-51
2023/12/06 07:13:32;;;;;;;23.27;11.57;;;19.60;53.10;;;;;;5074539;28;20069;-50
2023/12/06 07:15:58;;;;;;;31.90;12.57;;;19.70;53.10;;;;;;5068731;28;20053;-44
2023/12/06 07:18:25;;;;;;;24.65;11.93;;;19.70;52.70;;;;;;5069312;28;20029;-44
2023/12/06 07:20:51;;;;;;;23.85;11.30;;;19.60;53.10;;;;;;5073100;28;20016;-47
2023/12/06 07:23:18;;;;;;;28.00;11.75;;;19.70;54.20;;;;;;5073670;28;20016;-46
2023/12/06 07:25:47;;;;;;;22.27;12.27;;;19.70;53.20;;;;;;5072709;28;20028;-50
2023/12/06 07:28:13;;;;;;;25.15;12.00;;;19.60;53.60;;;;;;5073637;28;20034;-51
2023/12/06 07:30:40;;;;;;;21.52;11.48;;;19.60;53.20;;;;;;5072689;28;20024;-45
2023/12/06 07:33:07;;;;;;;21.35;11.55;;;19.60;54.30;;;;;;5072914;28;20031;-46
2023/12/06 07:35:34;;;;;;;22.55;12.70;;;19.60;53.40;;;;;;5072540;28;20027;-47
2023/12/06 07:38:00;;;;;;;19.73;12.05;;;19.50;53.10;;;;;;5065322;28;20400;-45
2023/12/06 07:40:26;;;;;;;20.42;11.68;;;19.60;53.10;;;;;;5073019;28;20028;-45
2023/12/06 07:42:52;;;;;;;27.92;11.75;;;19.60;52.80;;;;;;5071530;28;20032;-47
2023/12/06 07:45:18;;;;;;;24.23;11.98;;;19.60;53.30;;;;;;5067271;28;20025;-45
2023/12/06 07:47:44;;;;;;;16.67;10.60;;;19.60;53.50;;;;;;5053556;28;20032;-45
2023/12/06 07:50:10;;;;;;;19.33;12.10;;;19.60;53.20;;;;;;5053917;28;20066;-45
2023/12/06 07:52:37;;;;;;;19.60;11.77;;;19.60;53.20;;;;;;5053919;28;20029;-45
2023/12/06 07:55:06;;;;;;;23.40;11.43;;;19.60;54.10;;;;;;5053661;28;20029;-47
2023/12/06 07:57:35;;;;;;;21.00;10.80;;;19.60;53.70;;;;;;5053450;28;20647;-45
2023/12/06 08:00:02;;;;;;;18.00;11.63;;;19.60;54.10;;;;;;5053525;28;20476;-43
2023/12/06 08:02:39;;;;;;;21.33;10.68;;;19.60;53.30;;;;;;5053678;28;20025;-45
2023/12/06 08:05:10;;;;;;;22.67;12.15;;;19.60;53.80;;;;;;5053421;28;20143;-46
2023/12/06 08:07:37;;;;;;;24.65;11.82;;;19.60;53.90;;;;;;5067589;28;20020;-47
2023/12/06 08:10:12;;;;;;;21.83;11.82;;;19.60;53.30;;;;;;5070429;28;20096;-46
2023/12/06 08:12:38;;;;;;;174.35;23.05;;;19.60;53.30;;;;;;5064929;28;20033;-46
2023/12/06 08:15:05;;;;;;;45.10;15.27;;;19.60;53.10;;;;;;5073394;28;20020;-46
2023/12/06 08:17:31;;;;;;;26.00;10.82;;;19.60;54.10;;;;;;5062444;28;20021;-45
2023/12/06 08:19:57;;;;;;;71.55;17.90;;;19.60;53.40;;;;;;5072864;28;20553;-45
2023/12/06 08:22:22;;;;;;;68.07;17.50;;;19.50;52.90;;;;;;5072233;28;20431;-45
2023/12/06 08:24:48;;;;;;;91.00;17.70;;;19.60;53.10;;;;;;5062322;28;20025;-45
2023/12/06 08:27:14;;;;;;;57.35;17.67;;;19.50;53.40;;;;;;5076735;28;20484;-45
2023/12/06 08:29:40;;;;;;;56.85;24.45;;;19.50;53.00;;;;;;5067684;28;20030;-45
2023/12/06 08:32:07;;;;;;;49.10;25.95;;;19.30;49.80;;;;;;5068424;28;20051;-46
2023/12/06 08:34:32;;;;;;;39.33;25.58;;;19.00;46.50;;;;;;5069310;28;20500;-45
2023/12/06 08:36:58;;;;;;;61.53;24.40;;;18.70;44.90;;;;;;5073100;28;20088;-48
2023/12/06 21:46:58;;;;;;;17.80;7.22;;;18.70;51.00;;;;;;5108729;27;20384;-51
2023/12/06 21:49:24;;;;;;;12.07;7.05;;;18.80;52.80;;;;;;5089268;28;20102;-49
2023/12/06 21:51:51;;;;;;;13.18;6.95;;;18.90;51.70;;;;;;5089297;28;20024;-45
2023/12/06 21:54:17;;;;;;;12.32;7.20;;;18.90;52.50;;;;;;5089162;28;20059;-46
2023/12/06 21:56:42;;;;;;;12.35;6.82;;;18.90;52.30;;;;;;5111245;22;20052;-50
2023/12/06 21:59:08;;;;;;;13.85;7.10;;;18.90;52.60;;;;;;5088391;28;20040;-47
2023/12/06 22:01:34;;;;;;;14.60;7.32;;;18.90;52.80;;;;;;5089096;28;20020;-45
2023/12/06 22:04:00;;;;;;;12.20;7.30;;;18.90;52.60;;;;;;5089369;28;20021;-48
2023/12/06 22:06:25;;;;;;;11.85;6.97;;;18.90;52.70;;;;;;5088576;28;20024;-52
2023/12/06 22:08:51;;;;;;;13.43;7.32;;;18.90;52.60;;;;;;5069928;28;20025;-47
2023/12/06 22:11:17;;;;;;;13.63;7.57;;;18.90;52.90;;;;;;5068703;28;20109;-48
2023/12/06 22:13:43;;;;;;;12.30;6.75;;;18.90;52.60;;;;;;5068799;28;20031;-49
2023/12/06 22:16:10;;;;;;;13.63;6.95;;;18.80;52.50;;;;;;5068044;28;20115;-47
2023/12/06 22:18:37;;;;;;;13.10;6.63;;;18.90;52.50;;;;;;5068544;28;20501;-46
2023/12/06 22:21:04;;;;;;;14.02;7.65;;;18.90;52.70;;;;;;5068419;28;20100;-47
2023/12/06 22:23:29;;;;;;;13.63;7.35;;;18.90;52.50;;;;;;5068299;28;20036;-48
2023/12/06 22:25:55;;;;;;;11.23;6.43;;;18.90;52.50;;;;;;5067937;28;20029;-47
2023/12/06 22:28:22;;;;;;;15.38;6.85;;;18.90;52.50;;;;;;5067986;28;20488;-48
2023/12/06 22:30:48;;;;;;;15.25;7.10;;;18.90;52.40;;;;;;5068190;28;20462;-47
2023/12/06 22:33:14;;;;;;;12.57;6.88;;;18.90;52.30;;;;;;5066938;28;20031;-47
2023/12/06 22:35:40;;;;;;;10.65;6.40;;;18.90;52.40;;;;;;5066359;28;20400;-46
2023/12/06 22:38:06;;;;;;;9.95;5.53;;;18.90;52.30;;;;;;5068372;28;20024;-52
2023/12/06 22:40:31;;;;;;;10.57;6.50;;;18.90;52.60;;;;;;5067941;28;20059;-48
2023/12/06 22:42:58;;;;;;;10.25;6.40;;;18.90;52.40;;;;;;5067898;28;20428;-47
2023/12/06 22:45:24;;;;;;;10.52;6.28;;;18.90;52.40;;;;;;5067587;28;20112;-50
2023/12/06 22:47:50;;;;;;;14.02;6.82;;;18.90;52.40;;;;;;5055095;28;20143;-49
2023/12/06 22:50:15;;;;;;;13.27;6.40;;;18.90;52.10;;;;;;5053210;28;20067;-47
2023/12/06 22:52:42;;;;;;;13.27;6.10;;;18.90;52.90;;;;;;5054526;28;20035;-48
2023/12/06 22:55:08;;;;;;;13.52;6.25;;;18.90;52.30;;;;;;5054022;28;20066;-49
2023/12/06 22:57:34;;;;;;;11.27;5.95;;;18.90;52.30;;;;;;5052943;28;20507;-49
2023/12/06 22:59:59;;;;;;;13.00;6.22;;;18.90;52.10;;;;;;5054259;28;20025;-50
2023/12/06 23:02:25;;;;;;;14.73;6.03;;;18.90;52.00;;;;;;5054219;28;20492;-52
2023/12/06 23:04:52;;;;;;;10.52;6.05;;;18.90;52.00;;;;;;5054117;28;20041;-48
2023/12/06 23:07:18;;;;;;;9.10;5.72;;;18.90;52.30;;;;;;5053486;28;20033;-47
2023/12/06 23:09:44;;;;;;;10.77;5.75;;;18.90;52.10;;;;;;5053270;28;20504;-53
2023/12/06 23:12:09;;;;;;;9.88;5.63;;;18.90;51.90;;;;;;5053928;28;20553;-48
2023/12/06 23:14:36;;;;;;;9.80;5.80;;;18.90;52.10;;;;;;5053828;28;20025;-51
2023/12/06 23:17:01;;;;;;;20.60;5.85;;;18.90;52.00;;;;;;5053623;28;20457;-46
2023/12/06 23:19:27;;;;;;;20.00;5.78;;;18.90;52.30;;;;;;5053842;28;20107;-49
2023/12/06 23:21:53;;;;;;;18.80;5.75;;;18.90;52.20;;;;;;5053870;28;20025;-50
2023/12/06 23:24:19;;;;;;;10.85;5.63;;;18.90;52.00;;;;;;5053808;28;20108;-47
2023/12/06 23:26:45;;;;;;;11.60;6.43;;;18.90;52.00;;;;;;5053659;28;20043;-47
2023/12/06 23:29:10;;;;;;;10.85;5.50;;;18.90;51.90;;;;;;5053946;28;20056;-47
2023/12/06 23:31:36;;;;;;;11.80;5.22;;;18.90;51.80;;;;;;5053842;28;20188;-46
2023/12/06 23:34:02;;;;;;;9.60;5.40;;;18.90;51.80;;;;;;5053745;28;20029;-49
2023/12/06 23:36:28;;;;;;;10.70;5.53;;;18.90;51.80;;;;;;5053344;28;20029;-52
2023/12/06 23:38:53;;;;;;;9.65;5.82;;;18.90;51.70;;;;;;5053440;28;20055;-53
2023/12/06 23:41:19;;;;;;;10.85;5.32;;;18.90;51.70;;;;;;5053472;28;20424;-55
2023/12/06 23:43:45;;;;;;;10.75;5.80;;;18.90;51.60;;;;;;5053595;28;20036;-55
2023/12/06 23:46:18;;;;;;;11.32;5.35;;;18.90;51.50;;;;;;5053122;28;20027;-55
2023/12/06 23:48:44;;;;;;;9.80;5.20;;;18.90;51.60;;;;;;5053288;28;20037;-55
2023/12/06 23:51:21;;;;;;;9.70;5.72;;;18.90;51.50;;;;;;5053261;28;20044;-56
2023/12/06 23:53:48;;;;;;;8.55;5.28;;;18.90;51.50;;;;;;5053299;28;20039;-54
2023/12/06 23:56:14;;;;;;;11.90;5.38;;;18.90;51.50;;;;;;5052906;28;20029;-55
2023/12/06 23:58:40;;;;;;;8.07;4.75;;;18.90;52.00;;;;;;5052004;28;20036;-53
